createdAt,value
2022-12-31T00:01:26.286Z,10.43
2022-12-31T00:03:55.866Z,10.42
2022-12-31T00:06:33.490Z,10.42
2022-12-31T00:09:05.332Z,10.44
2022-12-31T00:11:36.489Z,10.41
2022-12-31T00:14:05.418Z,10.40
2022-12-31T00:16:40.125Z,10.38
2022-12-31T00:19:11.267Z,10.37
2022-12-31T00:21:40.438Z,10.37
2022-12-31T00:24:09.632Z,10.36
2022-12-31T00:26:38.010Z,10.35
2022-12-31T00:29:07.246Z,10.33
2022-12-31T00:31:37.826Z,10.33
2022-12-31T00:34:07.331Z,10.34
2022-12-31T00:36:39.716Z,10.32
2022-12-31T00:39:10.352Z,10.31
2022-12-31T00:41:39.152Z,10.29
2022-12-31T00:44:07.915Z,10.28
2022-12-31T00:49:05.958Z,10.30
2022-12-31T00:51:34.798Z,10.30
2022-12-31T00:54:03.344Z,10.29
2022-12-31T00:56:33.851Z,10.26
2022-12-31T00:59:02.754Z,10.26
2022-12-31T01:01:37.540Z,10.26
2022-12-31T01:04:14.762Z,10.26
2022-12-31T01:06:44.441Z,10.25
2022-12-31T01:09:15.120Z,10.25
2022-12-31T01:11:43.969Z,10.25
2022-12-31T01:14:15.576Z,10.27
2022-12-31T01:16:55.171Z,10.28
2022-12-31T01:19:29.435Z,10.25
2022-12-31T01:21:58.528Z,10.22
2022-12-31T01:24:27.274Z,10.22
2022-12-31T01:26:58.888Z,10.23
2022-12-31T01:29:27.482Z,10.24
2022-12-31T01:31:55.943Z,10.24
2022-12-31T01:34:24.508Z,10.25
2022-12-31T01:36:52.869Z,10.29
2022-12-31T01:39:21.412Z,10.31
2022-12-31T01:41:49.843Z,10.33
2022-12-31T01:44:27.277Z,10.35
2022-12-31T01:47:00.629Z,10.38
2022-12-31T01:49:49.840Z,10.42
2022-12-31T01:52:27.008Z,10.44
2022-12-31T01:55:08.606Z,10.44
2022-12-31T01:57:38.710Z,10.46
2022-12-31T02:00:08.739Z,10.50
2022-12-31T02:02:37.658Z,10.54
2022-12-31T02:05:19.413Z,10.56
2022-12-31T02:07:49.712Z,10.58
2022-12-31T02:10:18.311Z,10.60
2022-12-31T02:12:47.440Z,10.59
2022-12-31T02:15:16.382Z,10.59
2022-12-31T02:18:19.143Z,10.56
2022-12-31T02:21:12.820Z,10.56
2022-12-31T02:23:49.983Z,10.58
2022-12-31T02:26:45.424Z,10.57
2022-12-31T02:29:32.611Z,10.58
2022-12-31T02:32:18.925Z,10.57
2022-12-31T02:34:56.723Z,10.54
2022-12-31T02:37:27.206Z,10.53
2022-12-31T02:39:56.489Z,10.52
2022-12-31T02:42:24.807Z,10.51
2022-12-31T02:44:53.126Z,10.51
2022-12-31T02:47:27.512Z,10.50
2022-12-31T02:50:10.838Z,10.50
2022-12-31T02:52:48.485Z,10.50
2022-12-31T02:55:40.277Z,10.47
2022-12-31T02:59:07.353Z,10.42
2022-12-31T03:01:59.702Z,10.38
2022-12-31T03:04:35.310Z,10.34
2022-12-31T03:07:08.357Z,10.32
2022-12-31T03:09:38.176Z,10.30
2022-12-31T03:12:27.482Z,10.29
2022-12-31T03:14:55.977Z,10.27
2022-12-31T03:17:24.889Z,10.24
2022-12-31T03:20:11.663Z,10.18
2022-12-31T03:22:47.970Z,10.18
2022-12-31T03:25:36.990Z,10.15
2022-12-31T03:28:11.974Z,10.12
2022-12-31T03:30:42.602Z,10.09
2022-12-31T03:33:11.792Z,10.07
2022-12-31T03:35:41.583Z,10.04
2022-12-31T03:38:10.912Z,10.00
2022-12-31T03:40:47.682Z,9.98
2022-12-31T03:43:16.591Z,9.96
2022-12-31T03:45:45.182Z,9.91
2022-12-31T03:48:14.344Z,9.88
2022-12-31T03:50:42.774Z,9.85
2022-12-31T03:53:11.407Z,9.85
2022-12-31T03:55:39.927Z,9.84
2022-12-31T03:58:08.395Z,9.81
2022-12-31T04:00:36.723Z,9.77
2022-12-31T04:03:05.137Z,9.75
2022-12-31T04:05:34.849Z,9.75
2022-12-31T04:08:04.077Z,9.73
2022-12-31T04:10:32.489Z,9.73
2022-12-31T04:13:03.381Z,9.74
2022-12-31T04:15:31.820Z,9.72
2022-12-31T04:18:00.462Z,9.71
2022-12-31T04:20:29.238Z,9.71
2022-12-31T04:22:58.353Z,9.73
2022-12-31T04:25:26.841Z,9.74
2022-12-31T04:27:55.641Z,9.75
2022-12-31T04:30:23.908Z,9.74
2022-12-31T04:32:52.515Z,9.76
2022-12-31T04:35:21.612Z,9.76
2022-12-31T04:37:49.895Z,9.77
2022-12-31T04:40:18.713Z,9.77
2022-12-31T04:42:47.436Z,9.74
2022-12-31T04:45:15.789Z,9.74
2022-12-31T04:47:44.105Z,9.74
2022-12-31T04:50:12.574Z,9.74
2022-12-31T04:52:43.066Z,9.74
2022-12-31T04:55:12.825Z,9.74
2022-12-31T04:57:43.025Z,9.75
2022-12-31T05:00:11.932Z,9.76
2022-12-31T05:02:40.988Z,9.75
2022-12-31T05:05:09.989Z,9.75
2022-12-31T05:07:38.516Z,9.76
2022-12-31T05:10:08.040Z,9.80
2022-12-31T05:12:36.327Z,9.82
2022-12-31T05:15:05.195Z,9.83
2022-12-31T05:17:34.080Z,9.83
2022-12-31T05:20:02.784Z,9.83
2022-12-31T05:22:31.893Z,9.86
2022-12-31T05:25:01.876Z,9.85
2022-12-31T05:27:32.054Z,9.86
2022-12-31T05:30:01.339Z,9.83
2022-12-31T05:32:30.049Z,9.79
2022-12-31T05:35:00.675Z,9.78
2022-12-31T05:37:32.800Z,9.75
2022-12-31T05:40:01.649Z,9.73
2022-12-31T05:42:30.013Z,9.73
2022-12-31T05:44:58.657Z,9.76
2022-12-31T05:47:27.122Z,9.77
2022-12-31T05:49:55.662Z,9.79
2022-12-31T05:52:23.960Z,9.81
2022-12-31T05:54:52.438Z,9.83
2022-12-31T05:57:21.187Z,9.85
2022-12-31T05:59:49.578Z,9.84
2022-12-31T06:02:18.617Z,9.86
2022-12-31T06:04:47.088Z,9.87
2022-12-31T06:07:16.310Z,9.86
2022-12-31T06:09:45.030Z,9.85
2022-12-31T06:12:13.437Z,9.84
2022-12-31T06:14:45.539Z,9.84
2022-12-31T06:17:14.985Z,9.85
2022-12-31T06:19:43.755Z,9.84
2022-12-31T06:22:12.580Z,9.84
2022-12-31T06:24:41.147Z,9.83
2022-12-31T06:27:09.565Z,9.82
2022-12-31T06:29:37.928Z,9.83
2022-12-31T06:32:06.692Z,9.85
2022-12-31T06:34:35.435Z,9.87
2022-12-31T06:37:03.800Z,9.88
2022-12-31T06:39:32.460Z,9.89
2022-12-31T06:42:00.890Z,9.91
2022-12-31T06:44:29.262Z,9.89
2022-12-31T06:46:58.435Z,9.88
2022-12-31T06:49:27.044Z,9.83
2022-12-31T06:51:55.345Z,9.80
2022-12-31T06:54:24.168Z,9.78
2022-12-31T06:56:53.195Z,9.78
2022-12-31T06:59:27.599Z,9.78
2022-12-31T07:02:05.636Z,9.76
2022-12-31T07:05:04.337Z,9.72
2022-12-31T07:07:43.139Z,9.69
2022-12-31T07:10:29.971Z,9.69
2022-12-31T07:13:24.547Z,9.68
2022-12-31T07:16:28.997Z,9.64
2022-12-31T07:19:00.177Z,9.59
2022-12-31T07:21:41.446Z,9.58
2022-12-31T07:24:11.630Z,9.58
2022-12-31T07:26:56.979Z,9.58
2022-12-31T07:29:40.980Z,9.58
2022-12-31T07:32:16.780Z,9.58
2022-12-31T07:34:48.647Z,9.60
2022-12-31T07:37:29.705Z,9.61
2022-12-31T07:40:31.787Z,9.63
2022-12-31T07:43:06.324Z,9.63
2022-12-31T07:46:15.363Z,9.63
2022-12-31T07:48:44.570Z,9.65
2022-12-31T07:51:14.146Z,9.68
2022-12-31T07:53:46.774Z,9.67
2022-12-31T07:56:15.542Z,9.65
2022-12-31T08:04:07.819Z,9.70
2022-12-31T08:06:42.637Z,9.69
2022-12-31T08:09:46.566Z,9.68
2022-12-31T08:12:16.701Z,9.69
2022-12-31T08:14:48.550Z,9.70
2022-12-31T08:17:20.435Z,9.73
2022-12-31T08:19:49.452Z,9.73
2022-12-31T08:22:22.536Z,9.73
2022-12-31T08:24:52.064Z,9.74
2022-12-31T08:27:33.375Z,9.76
2022-12-31T08:30:20.445Z,9.78
2022-12-31T08:33:11.543Z,9.77
2022-12-31T08:35:49.328Z,9.76
2022-12-31T08:38:46.409Z,9.76
2022-12-31T08:41:52.635Z,9.77
2022-12-31T08:44:59.237Z,9.78
2022-12-31T08:48:00.200Z,9.77
2022-12-31T08:50:29.221Z,9.76
2022-12-31T08:52:58.097Z,9.78
2022-12-31T08:55:28.050Z,9.79
2022-12-31T08:58:08.661Z,9.81
2022-12-31T09:00:40.877Z,9.82
2022-12-31T09:03:31.565Z,9.82
2022-12-31T09:06:29.380Z,9.84
2022-12-31T09:09:35.558Z,9.84
2022-12-31T09:12:25.831Z,9.86
2022-12-31T09:15:09.299Z,9.87
2022-12-31T09:17:47.918Z,9.86
2022-12-31T09:20:23.151Z,9.87
2022-12-31T09:22:53.914Z,9.87
2022-12-31T09:25:24.737Z,9.88
2022-12-31T09:28:11.197Z,9.87
2022-12-31T09:31:29.569Z,9.85
2022-12-31T09:34:38.080Z,9.86
2022-12-31T09:37:35.279Z,9.87
2022-12-31T09:40:32.998Z,9.86
2022-12-31T09:43:57.360Z,9.84
2022-12-31T09:46:48.713Z,9.81
2022-12-31T09:49:32.535Z,9.81
2022-12-31T09:52:20.110Z,9.83
2022-12-31T09:55:01.851Z,9.83
2022-12-31T09:57:48.379Z,9.84
2022-12-31T10:00:29.592Z,9.83
2022-12-31T10:03:00.828Z,9.82
2022-12-31T10:05:54.764Z,9.81
2022-12-31T10:08:50.692Z,9.82
2022-12-31T10:11:34.490Z,9.84
2022-12-31T10:14:24.166Z,9.87
2022-12-31T10:16:58.771Z,9.92
2022-12-31T10:19:47.512Z,9.95
2022-12-31T10:22:27.998Z,10.00
2022-12-31T10:25:19.722Z,10.01
2022-12-31T10:28:13.872Z,10.04
2022-12-31T10:30:53.519Z,10.07
2022-12-31T10:33:44.944Z,10.06
2022-12-31T10:36:29.378Z,10.05
2022-12-31T10:39:24.427Z,10.06
2022-12-31T10:42:25.012Z,10.08
2022-12-31T10:44:59.885Z,10.10
2022-12-31T10:47:36.464Z,10.10
2022-12-31T10:50:40.502Z,10.11
2022-12-31T10:53:33.166Z,10.08
2022-12-31T10:56:24.519Z,10.06
2022-12-31T10:59:39.356Z,10.06
2022-12-31T11:02:11.105Z,10.06
2022-12-31T11:05:14.372Z,10.04
2022-12-31T11:08:30.082Z,9.98
2022-12-31T11:11:18.359Z,9.97
2022-12-31T11:13:59.525Z,9.96
2022-12-31T11:16:44.323Z,9.94
2022-12-31T11:19:24.949Z,9.90
2022-12-31T11:22:16.920Z,9.89
2022-12-31T11:25:05.480Z,9.88
2022-12-31T11:27:54.156Z,9.88
2022-12-31T11:31:01.967Z,9.86
2022-12-31T11:34:06.764Z,9.87
2022-12-31T11:37:14.337Z,9.88
2022-12-31T11:40:18.672Z,9.90
2022-12-31T11:42:53.619Z,9.89
2022-12-31T11:45:45.630Z,9.88
2022-12-31T11:48:42.837Z,9.88
2022-12-31T11:51:27.916Z,9.89
2022-12-31T11:54:20.945Z,9.91
2022-12-31T11:57:14.696Z,9.91
2022-12-31T11:59:45.004Z,9.91
2022-12-31T12:02:29.361Z,9.91
2022-12-31T12:05:08.417Z,9.87
2022-12-31T12:07:39.017Z,9.86
2022-12-31T12:10:36.245Z,9.84
2022-12-31T12:13:26.815Z,9.85
2022-12-31T12:16:09.948Z,9.85
2022-12-31T12:18:50.823Z,9.87
2022-12-31T12:21:24.213Z,9.87
2022-12-31T12:24:03.814Z,9.87
2022-12-31T12:26:46.402Z,9.90
2022-12-31T12:29:32.731Z,9.89
2022-12-31T12:32:06.696Z,9.90
2022-12-31T12:34:43.142Z,9.91
2022-12-31T12:37:43.039Z,9.91
2022-12-31T12:40:31.433Z,9.92
2022-12-31T12:43:03.801Z,9.91
2022-12-31T12:45:51.681Z,9.86
2022-12-31T12:48:50.754Z,9.86
2022-12-31T12:51:45.237Z,9.86
2022-12-31T12:54:30.625Z,9.87
2022-12-31T12:57:34.015Z,9.87
2022-12-31T13:00:11.383Z,9.85
2022-12-31T13:03:14.402Z,9.81
2022-12-31T13:05:53.793Z,9.80
2022-12-31T13:08:50.243Z,9.78
2022-12-31T13:11:38.624Z,9.76
2022-12-31T13:14:26.717Z,9.76
2022-12-31T13:17:22.529Z,9.77
2022-12-31T13:20:01.764Z,9.78
2022-12-31T13:22:54.370Z,9.77
2022-12-31T13:25:31.899Z,9.75
2022-12-31T13:28:05.824Z,9.74
2022-12-31T13:30:45.934Z,9.72
2022-12-31T13:33:25.725Z,9.70
2022-12-31T13:35:57.803Z,9.69
2022-12-31T13:38:56.471Z,9.66
2022-12-31T13:41:32.932Z,9.63
2022-12-31T13:47:25.957Z,9.57
2022-12-31T13:49:58.962Z,9.56
2022-12-31T13:53:04.260Z,9.57
2022-12-31T13:55:32.686Z,9.59
2022-12-31T13:58:09.639Z,9.58
2022-12-31T14:00:52.762Z,9.59
2022-12-31T14:03:26.121Z,9.59
2022-12-31T14:06:08.734Z,9.60
2022-12-31T14:08:38.362Z,9.61
2022-12-31T14:11:22.694Z,9.64
2022-12-31T14:14:29.160Z,9.66
2022-12-31T14:17:10.042Z,9.67
2022-12-31T14:19:58.782Z,9.67
2022-12-31T14:23:00.243Z,9.66
2022-12-31T14:25:46.373Z,9.64
2022-12-31T14:28:22.171Z,9.60
2022-12-31T14:30:59.862Z,9.58
2022-12-31T14:33:40.278Z,9.56
2022-12-31T14:36:34.540Z,9.56
2022-12-31T14:39:07.558Z,9.56
2022-12-31T14:41:37.268Z,9.55
2022-12-31T14:44:29.049Z,9.56
2022-12-31T14:46:59.130Z,9.55
2022-12-31T14:49:38.126Z,9.55
2022-12-31T14:52:17.168Z,9.54
2022-12-31T14:54:47.606Z,9.54
2022-12-31T14:57:20.561Z,9.54
2022-12-31T15:00:01.814Z,9.54
2022-12-31T15:02:35.166Z,9.52
2022-12-31T15:05:19.000Z,9.50
2022-12-31T15:07:50.596Z,9.49
2022-12-31T15:10:39.117Z,9.46
2022-12-31T15:13:33.647Z,9.44
2022-12-31T15:16:12.344Z,9.40
2022-12-31T15:18:59.457Z,9.39
2022-12-31T15:21:59.506Z,9.39
2022-12-31T15:24:31.797Z,9.39
2022-12-31T15:27:06.463Z,9.39
2022-12-31T15:29:37.655Z,9.38
2022-12-31T15:32:09.347Z,9.35
2022-12-31T15:34:38.928Z,9.35
2022-12-31T15:37:29.508Z,9.35
2022-12-31T15:40:20.117Z,9.35
2022-12-31T15:43:03.557Z,9.35
2022-12-31T15:45:43.683Z,9.35
2022-12-31T15:48:29.837Z,9.33
2022-12-31T15:51:00.361Z,9.31
2022-12-31T15:53:38.482Z,9.31
2022-12-31T15:56:09.572Z,9.30
2022-12-31T15:58:38.733Z,9.29
2022-12-31T16:01:17.808Z,9.28
2022-12-31T16:03:58.048Z,9.30
2022-12-31T16:06:31.557Z,9.31
2022-12-31T16:09:01.455Z,9.34
2022-12-31T16:11:31.694Z,9.35
2022-12-31T16:14:01.854Z,9.35
2022-12-31T16:16:33.183Z,9.36
2022-12-31T16:19:02.951Z,9.36
2022-12-31T16:21:33.778Z,9.34
2022-12-31T16:24:28.514Z,9.32
2022-12-31T16:27:05.265Z,9.32
2022-12-31T16:29:47.272Z,9.32
2022-12-31T16:32:21.064Z,9.33
2022-12-31T16:34:50.640Z,9.33
2022-12-31T16:37:22.817Z,9.30
2022-12-31T16:39:59.377Z,9.27
2022-12-31T16:42:31.788Z,9.26
2022-12-31T16:45:31.164Z,9.26
2022-12-31T16:48:24.537Z,9.26
2022-12-31T16:50:57.211Z,9.28
2022-12-31T16:53:28.804Z,9.28
2022-12-31T16:56:11.229Z,9.28
2022-12-31T16:58:46.396Z,9.29
2022-12-31T17:01:22.040Z,9.29
2022-12-31T17:03:57.570Z,9.29
2022-12-31T17:06:29.248Z,9.28
2022-12-31T17:09:01.857Z,9.29
2022-12-31T17:11:37.625Z,9.29
2022-12-31T17:14:09.307Z,9.29
2022-12-31T17:17:01.364Z,9.31
2022-12-31T17:19:50.666Z,9.31
2022-12-31T17:22:36.546Z,9.27
2022-12-31T17:25:07.717Z,9.25
2022-12-31T17:27:38.139Z,9.26
2022-12-31T17:30:28.945Z,9.27
2022-12-31T17:33:24.423Z,9.26
2022-12-31T17:36:21.661Z,9.22
2022-12-31T17:38:51.898Z,9.25
2022-12-31T17:41:28.997Z,9.27
2022-12-31T17:44:02.397Z,9.29
2022-12-31T17:46:32.562Z,9.30
2022-12-31T17:49:05.003Z,9.31
2022-12-31T17:51:33.446Z,9.33
2022-12-31T17:54:03.438Z,9.34
2022-12-31T17:56:32.047Z,9.37
2022-12-31T17:59:01.507Z,9.40
2022-12-31T18:01:30.108Z,9.46
2022-12-31T18:04:00.335Z,9.50
2022-12-31T18:06:30.412Z,9.56
2022-12-31T18:09:00.149Z,9.61
2022-12-31T18:11:30.342Z,9.65
2022-12-31T18:14:00.583Z,9.67
2022-12-31T18:16:30.591Z,9.69
2022-12-31T18:19:01.651Z,9.71
2022-12-31T18:21:40.966Z,9.69
2022-12-31T18:24:25.702Z,9.69
2022-12-31T18:26:56.377Z,9.70
2022-12-31T18:29:24.989Z,9.71
2022-12-31T18:31:55.231Z,9.75
2022-12-31T18:34:28.190Z,9.76
2022-12-31T18:36:58.197Z,9.77
2022-12-31T18:39:27.831Z,9.78
2022-12-31T18:41:57.545Z,9.79
2022-12-31T18:44:27.341Z,9.80
2022-12-31T18:46:57.088Z,9.83
2022-12-31T18:49:26.851Z,9.86
2022-12-31T18:51:58.490Z,9.90
2022-12-31T18:54:26.895Z,9.96
2022-12-31T18:56:57.253Z,9.99
2022-12-31T18:59:28.885Z,10.03
2022-12-31T19:01:58.256Z,10.07
2022-12-31T19:04:28.340Z,10.09
2022-12-31T19:06:57.517Z,10.13
2022-12-31T19:12:17.041Z,10.17
2022-12-31T19:14:48.545Z,10.17
2022-12-31T19:17:17.166Z,10.22
2022-12-31T19:19:47.156Z,10.23
2022-12-31T19:22:17.056Z,10.24
2022-12-31T19:24:46.482Z,10.25
2022-12-31T19:27:15.529Z,10.25
2022-12-31T19:29:45.085Z,10.27
2022-12-31T19:32:13.815Z,10.30
2022-12-31T19:34:42.203Z,10.30
2022-12-31T19:37:20.443Z,10.32
2022-12-31T19:39:49.311Z,10.33
2022-12-31T19:42:17.825Z,10.35
2022-12-31T19:44:48.071Z,10.33
2022-12-31T19:47:18.316Z,10.33
2022-12-31T19:49:47.991Z,10.33
2022-12-31T19:52:17.988Z,10.29
2022-12-31T19:54:47.228Z,10.25
2022-12-31T19:57:17.953Z,10.23
2022-12-31T19:59:46.682Z,10.24
2022-12-31T20:02:15.465Z,10.25
2022-12-31T20:04:45.450Z,10.26
2022-12-31T20:07:15.904Z,10.27
2022-12-31T20:09:45.744Z,10.29
2022-12-31T20:12:14.998Z,10.30
2022-12-31T20:14:43.576Z,10.30
2022-12-31T20:17:13.339Z,10.28
2022-12-31T20:19:41.795Z,10.23
2022-12-31T20:22:15.749Z,10.23
2022-12-31T20:24:46.016Z,10.20
2022-12-31T20:27:18.573Z,10.18
2022-12-31T20:29:48.610Z,10.19
2022-12-31T20:32:18.284Z,10.19
2022-12-31T20:34:48.110Z,10.19
2022-12-31T20:37:16.674Z,10.19
2022-12-31T20:39:46.744Z,10.21
2022-12-31T20:42:16.475Z,10.22
2022-12-31T20:44:44.820Z,10.21
2022-12-31T20:47:14.404Z,10.18
2022-12-31T20:50:10.195Z,10.19
2022-12-31T20:52:31.803Z,10.19
2022-12-31T20:55:01.337Z,10.14
2022-12-31T20:57:33.741Z,10.14
2022-12-31T21:00:03.178Z,10.14
2022-12-31T21:02:41.512Z,10.14
2022-12-31T21:05:12.834Z,10.14
2022-12-31T21:07:41.526Z,10.16
2022-12-31T21:10:10.997Z,10.18
2022-12-31T21:12:47.432Z,10.18
2022-12-31T21:15:17.179Z,10.20
2022-12-31T21:17:46.282Z,10.21
2022-12-31T21:20:15.859Z,10.22
2022-12-31T21:22:44.302Z,10.22
2022-12-31T21:25:14.116Z,10.23
2022-12-31T21:27:43.394Z,10.22
2022-12-31T21:30:19.265Z,10.23
2022-12-31T21:32:48.947Z,10.22
2022-12-31T21:38:09.202Z,10.21
2022-12-31T21:40:39.225Z,10.17
2022-12-31T21:43:08.024Z,10.16
2022-12-31T21:45:37.685Z,10.15
2022-12-31T21:48:23.002Z,10.16
2022-12-31T21:51:06.906Z,10.14
2022-12-31T21:53:37.494Z,10.12
2022-12-31T21:56:10.302Z,10.11
2022-12-31T21:58:41.858Z,10.10
2022-12-31T22:01:41.700Z,10.08
2022-12-31T22:04:35.379Z,10.06
2022-12-31T22:07:00.843Z,10.03
2022-12-31T22:09:32.700Z,10.02
2022-12-31T22:12:02.462Z,10.01
2022-12-31T22:14:32.208Z,10.01
2022-12-31T22:17:01.776Z,9.97
2022-12-31T22:19:30.914Z,9.95
2022-12-31T22:22:00.682Z,9.92
2022-12-31T22:24:30.953Z,9.90
2022-12-31T22:27:28.519Z,9.87
2022-12-31T22:29:50.559Z,9.85
2022-12-31T22:32:25.445Z,9.82
2022-12-31T22:34:54.190Z,9.80
2022-12-31T22:37:54.842Z,9.80
2022-12-31T22:40:12.880Z,9.80
2022-12-31T22:42:41.840Z,9.80
2022-12-31T22:45:14.300Z,9.79
2022-12-31T22:47:44.076Z,9.78
2022-12-31T22:50:13.601Z,9.78
2022-12-31T22:52:42.823Z,9.77
2022-12-31T22:55:12.824Z,9.77
2022-12-31T22:57:41.896Z,9.78
2022-12-31T23:03:09.051Z,9.83
2022-12-31T23:05:37.538Z,9.85
2022-12-31T23:08:18.741Z,9.90
2022-12-31T23:11:13.630Z,9.95
2022-12-31T23:14:03.154Z,9.99
2022-12-31T23:16:50.618Z,10.04
2022-12-31T23:19:38.559Z,10.08
2022-12-31T23:22:26.183Z,10.11
2022-12-31T23:24:55.402Z,10.13
2022-12-31T23:27:23.995Z,10.16
2022-12-31T23:29:52.483Z,10.22
2022-12-31T23:32:21.873Z,10.26
2022-12-31T23:34:51.371Z,10.32
2022-12-31T23:37:20.390Z,10.37
2022-12-31T23:39:50.260Z,10.43
2022-12-31T23:42:20.629Z,10.47
2022-12-31T23:44:49.973Z,10.47
2022-12-31T23:47:19.517Z,10.47
2022-12-31T23:49:48.607Z,10.46
2022-12-31T23:52:18.334Z,10.46
2022-12-31T23:54:48.567Z,10.46
2022-12-31T23:57:18.086Z,10.44
2022-12-31T23:59:48.224Z,10.44
